sensor_id;sensor_type;location;lat;lon;timestamp;P1;durP1;ratioP1;P2;durP2;ratioP2
65039;SDS011;51606;45.000;38.612;2023-06-19T00:00:49;3.70;;;2.15;;
65039;SDS011;51606;45.000;38.612;2023-06-19T00:03:16;2.58;;;2.13;;
65039;SDS011;51606;45.000;38.612;2023-06-19T00:05:43;8.93;;;2.55;;
65039;SDS011;51606;45.000;38.612;2023-06-19T00:08:09;7.03;;;2.22;;
65039;SDS011;51606;45.000;38.612;2023-06-19T00:10:35;3.03;;;2.42;;
65039;SDS011;51606;45.000;38.612;2023-06-19T00:13:02;2.45;;;2.17;;
65039;SDS011;51606;45.000;38.612;2023-06-19T00:15:29;5.00;;;2.08;;
65039;SDS011;51606;45.000;38.612;2023-06-19T00:17:56;3.17;;;2.35;;
65039;SDS011;51606;45.000;38.612;2023-06-19T00:20:24;12.25;;;2.15;;
65039;SDS011;51606;45.000;38.612;2023-06-19T00:22:51;5.60;;;2.88;;
65039;SDS011;51606;45.000;38.612;2023-06-19T00:25:18;3.70;;;2.55;;
65039;SDS011;51606;45.000;38.612;2023-06-19T00:27:46;5.40;;;3.85;;
65039;SDS011;51606;45.000;38.612;2023-06-19T00:30:13;7.93;;;2.67;;
65039;SDS011;51606;45.000;38.612;2023-06-19T00:32:41;7.70;;;2.85;;
65039;SDS011;51606;45.000;38.612;2023-06-19T00:35:16;4.88;;;2.22;;
65039;SDS011;51606;45.000;38.612;2023-06-19T00:37:47;3.95;;;2.35;;
65039;SDS011;51606;45.000;38.612;2023-06-19T00:40:16;8.93;;;2.90;;
65039;SDS011;51606;45.000;38.612;2023-06-19T00:42:52;4.28;;;2.42;;
65039;SDS011;51606;45.000;38.612;2023-06-19T00:45:18;4.07;;;3.10;;
65039;SDS011;51606;45.000;38.612;2023-06-19T00:47:45;5.80;;;2.30;;
65039;SDS011;51606;45.000;38.612;2023-06-19T00:50:12;2.72;;;1.75;;
65039;SDS011;51606;45.000;38.612;2023-06-19T00:52:39;5.18;;;1.50;;
65039;SDS011;51606;45.000;38.612;2023-06-19T00:55:08;11.90;;;1.90;;
65039;SDS011;51606;45.000;38.612;2023-06-19T00:57:35;3.30;;;2.30;;
65039;SDS011;51606;45.000;38.612;2023-06-19T01:00:02;1.80;;;1.70;;
65039;SDS011;51606;45.000;38.612;2023-06-19T01:02:34;5.15;;;1.77;;
65039;SDS011;51606;45.000;38.612;2023-06-19T01:05:01;7.75;;;2.17;;
65039;SDS011;51606;45.000;38.612;2023-06-19T01:08:20;7.55;;;2.72;;
65039;SDS011;51606;45.000;38.612;2023-06-19T01:16:09;3.95;;;2.33;;
65039;SDS011;51606;45.000;38.612;2023-06-19T01:18:37;6.30;;;2.25;;
65039;SDS011;51606;45.000;38.612;2023-06-19T01:21:15;3.60;;;1.98;;
65039;SDS011;51606;45.000;38.612;2023-06-19T01:27:10;2.97;;;2.00;;
65039;SDS011;51606;45.000;38.612;2023-06-19T01:29:38;2.38;;;1.73;;
65039;SDS011;51606;45.000;38.612;2023-06-19T01:32:10;7.50;;;2.13;;
65039;SDS011;51606;45.000;38.612;2023-06-19T01:34:41;4.00;;;2.05;;
65039;SDS011;51606;45.000;38.612;2023-06-19T01:37:08;4.38;;;2.60;;
65039;SDS011;51606;45.000;38.612;2023-06-19T01:39:37;3.25;;;1.98;;
65039;SDS011;51606;45.000;38.612;2023-06-19T01:42:04;4.38;;;2.40;;
65039;SDS011;51606;45.000;38.612;2023-06-19T01:44:32;3.25;;;1.80;;
65039;SDS011;51606;45.000;38.612;2023-06-19T01:46:59;3.80;;;2.03;;
65039;SDS011;51606;45.000;38.612;2023-06-19T01:49:26;5.28;;;2.20;;
65039;SDS011;51606;45.000;38.612;2023-06-19T01:51:52;3.60;;;2.33;;
65039;SDS011;51606;45.000;38.612;2023-06-19T01:54:19;5.35;;;1.95;;
65039;SDS011;51606;45.000;38.612;2023-06-19T01:56:45;3.03;;;1.80;;
65039;SDS011;51606;45.000;38.612;2023-06-19T01:59:13;13.45;;;2.30;;
65039;SDS011;51606;45.000;38.612;2023-06-19T02:01:39;3.45;;;1.88;;
65039;SDS011;51606;45.000;38.612;2023-06-19T02:04:06;8.65;;;2.25;;
65039;SDS011;51606;45.000;38.612;2023-06-19T02:06:32;2.55;;;1.80;;
65039;SDS011;51606;45.000;38.612;2023-06-19T02:09:00;7.45;;;2.67;;
65039;SDS011;51606;45.000;38.612;2023-06-19T02:11:26;5.20;;;2.20;;
65039;SDS011;51606;45.000;38.612;2023-06-19T02:13:54;1.77;;;1.52;;
65039;SDS011;51606;45.000;38.612;2023-06-19T02:16:20;1.67;;;1.48;;
65039;SDS011;51606;45.000;38.612;2023-06-19T02:18:48;2.92;;;1.85;;
65039;SDS011;51606;45.000;38.612;2023-06-19T02:21:14;2.28;;;1.77;;
65039;SDS011;51606;45.000;38.612;2023-06-19T02:23:41;3.95;;;2.05;;
65039;SDS011;51606;45.000;38.612;2023-06-19T02:26:07;2.70;;;1.77;;
65039;SDS011;51606;45.000;38.612;2023-06-19T02:28:34;4.60;;;2.35;;
65039;SDS011;51606;45.000;38.612;2023-06-19T02:31:00;4.72;;;2.60;;
65039;SDS011;51606;45.000;38.612;2023-06-19T02:33:26;14.00;;;2.30;;
65039;SDS011;51606;45.000;38.612;2023-06-19T02:35:54;4.32;;;2.80;;
65039;SDS011;51606;45.000;38.612;2023-06-19T02:38:25;2.90;;;1.83;;
65039;SDS011;51606;45.000;38.612;2023-06-19T02:40:51;2.60;;;2.00;;
65039;SDS011;51606;45.000;38.612;2023-06-19T02:43:18;3.78;;;2.17;;
65039;SDS011;51606;45.000;38.612;2023-06-19T02:45:44;10.30;;;3.63;;
65039;SDS011;51606;45.000;38.612;2023-06-19T02:48:10;2.67;;;2.17;;
65039;SDS011;51606;45.000;38.612;2023-06-19T02:50:37;2.92;;;2.28;;
65039;SDS011;51606;45.000;38.612;2023-06-19T02:53:04;4.05;;;2.72;;
65039;SDS011;51606;45.000;38.612;2023-06-19T02:55:31;3.70;;;2.20;;
65039;SDS011;51606;45.000;38.612;2023-06-19T02:57:57;3.33;;;2.20;;
65039;SDS011;51606;45.000;38.612;2023-06-19T03:00:24;3.53;;;2.58;;
65039;SDS011;51606;45.000;38.612;2023-06-19T03:02:53;9.40;;;2.72;;
65039;SDS011;51606;45.000;38.612;2023-06-19T03:05:19;6.97;;;2.65;;
65039;SDS011;51606;45.000;38.612;2023-06-19T03:07:46;4.57;;;2.50;;
65039;SDS011;51606;45.000;38.612;2023-06-19T03:10:12;4.28;;;3.10;;
65039;SDS011;51606;45.000;38.612;2023-06-19T03:12:39;4.05;;;2.72;;
65039;SDS011;51606;45.000;38.612;2023-06-19T03:15:05;3.85;;;2.45;;
65039;SDS011;51606;45.000;38.612;2023-06-19T03:17:35;6.80;;;2.80;;
65039;SDS011;51606;45.000;38.612;2023-06-19T03:20:04;13.30;;;2.78;;
65039;SDS011;51606;45.000;38.612;2023-06-19T03:22:31;5.00;;;2.83;;
65039;SDS011;51606;45.000;38.612;2023-06-19T03:24:58;5.63;;;3.10;;
65039;SDS011;51606;45.000;38.612;2023-06-19T03:27:25;10.95;;;3.60;;
65039;SDS011;51606;45.000;38.612;2023-06-19T03:29:53;6.10;;;3.35;;
65039;SDS011;51606;45.000;38.612;2023-06-19T03:34:53;18.30;;;3.80;;
65039;SDS011;51606;45.000;38.612;2023-06-19T03:37:22;7.13;;;3.55;;
65039;SDS011;51606;45.000;38.612;2023-06-19T03:39:49;5.63;;;3.17;;
65039;SDS011;51606;45.000;38.612;2023-06-19T03:42:15;6.63;;;3.25;;
65039;SDS011;51606;45.000;38.612;2023-06-19T03:44:42;14.57;;;3.40;;
65039;SDS011;51606;45.000;38.612;2023-06-19T03:47:09;11.88;;;3.63;;
65039;SDS011;51606;45.000;38.612;2023-06-19T03:49:37;6.03;;;3.35;;
65039;SDS011;51606;45.000;38.612;2023-06-19T03:52:04;10.43;;;3.28;;
65039;SDS011;51606;45.000;38.612;2023-06-19T03:54:31;4.00;;;2.95;;
65039;SDS011;51606;45.000;38.612;2023-06-19T03:56:59;4.50;;;2.78;;
65039;SDS011;51606;45.000;38.612;2023-06-19T03:59:26;8.45;;;3.03;;
65039;SDS011;51606;45.000;38.612;2023-06-19T04:01:52;5.85;;;3.60;;
65039;SDS011;51606;45.000;38.612;2023-06-19T04:04:19;4.72;;;3.17;;
65039;SDS011;51606;45.000;38.612;2023-06-19T04:06:45;4.25;;;3.50;;
65039;SDS011;51606;45.000;38.612;2023-06-19T04:09:12;4.07;;;3.20;;
65039;SDS011;51606;45.000;38.612;2023-06-19T04:11:39;9.45;;;3.67;;
65039;SDS011;51606;45.000;38.612;2023-06-19T04:14:05;15.60;;;3.83;;
65039;SDS011;51606;45.000;38.612;2023-06-19T04:16:31;7.68;;;3.40;;
65039;SDS011;51606;45.000;38.612;2023-06-19T04:18:58;7.20;;;3.53;;
65039;SDS011;51606;45.000;38.612;2023-06-19T04:21:25;4.93;;;3.30;;
65039;SDS011;51606;45.000;38.612;2023-06-19T04:23:52;6.97;;;3.95;;
65039;SDS011;51606;45.000;38.612;2023-06-19T04:26:18;9.13;;;3.80;;
65039;SDS011;51606;45.000;38.612;2023-06-19T04:28:47;5.25;;;3.08;;
65039;SDS011;51606;45.000;38.612;2023-06-19T04:31:13;6.00;;;3.65;;
65039;SDS011;51606;45.000;38.612;2023-06-19T04:33:44;8.95;;;3.70;;
65039;SDS011;51606;45.000;38.612;2023-06-19T04:36:11;8.13;;;3.67;;
65039;SDS011;51606;45.000;38.612;2023-06-19T04:38:37;6.68;;;3.67;;
65039;SDS011;51606;45.000;38.612;2023-06-19T04:41:04;7.93;;;3.78;;
65039;SDS011;51606;45.000;38.612;2023-06-19T04:43:30;9.13;;;4.03;;
65039;SDS011;51606;45.000;38.612;2023-06-19T04:45:58;10.88;;;4.05;;
65039;SDS011;51606;45.000;38.612;2023-06-19T04:48:24;5.22;;;3.70;;
65039;SDS011;51606;45.000;38.612;2023-06-19T04:50:52;6.65;;;3.90;;
65039;SDS011;51606;45.000;38.612;2023-06-19T04:53:18;14.00;;;4.05;;
65039;SDS011;51606;45.000;38.612;2023-06-19T04:55:47;6.55;;;3.67;;
65039;SDS011;51606;45.000;38.612;2023-06-19T04:58:15;7.53;;;3.83;;
65039;SDS011;51606;45.000;38.612;2023-06-19T05:00:41;7.85;;;3.95;;
65039;SDS011;51606;45.000;38.612;2023-06-19T05:03:08;8.35;;;4.25;;
65039;SDS011;51606;45.000;38.612;2023-06-19T05:05:35;11.93;;;4.18;;
65039;SDS011;51606;45.000;38.612;2023-06-19T05:08:01;6.05;;;3.80;;
65039;SDS011;51606;45.000;38.612;2023-06-19T05:10:28;11.48;;;4.30;;
65039;SDS011;51606;45.000;38.612;2023-06-19T05:12:54;10.68;;;4.13;;
65039;SDS011;51606;45.000;38.612;2023-06-19T05:15:20;10.77;;;4.35;;
65039;SDS011;51606;45.000;38.612;2023-06-19T05:17:47;7.80;;;3.78;;
65039;SDS011;51606;45.000;38.612;2023-06-19T05:20:13;8.20;;;3.63;;
65039;SDS011;51606;45.000;38.612;2023-06-19T05:22:41;7.93;;;3.53;;
65039;SDS011;51606;45.000;38.612;2023-06-19T05:25:07;7.75;;;3.80;;
65039;SDS011;51606;45.000;38.612;2023-06-19T05:27:34;6.25;;;3.50;;
65039;SDS011;51606;45.000;38.612;2023-06-19T05:30:00;5.65;;;3.33;;
65039;SDS011;51606;45.000;38.612;2023-06-19T05:32:27;6.10;;;3.20;;
65039;SDS011;51606;45.000;38.612;2023-06-19T05:34:53;5.95;;;3.05;;
65039;SDS011;51606;45.000;38.612;2023-06-19T05:37:20;6.55;;;2.97;;
65039;SDS011;51606;45.000;38.612;2023-06-19T05:39:48;7.30;;;3.13;;
65039;SDS011;51606;45.000;38.612;2023-06-19T05:42:15;6.20;;;3.28;;
65039;SDS011;51606;45.000;38.612;2023-06-19T05:44:41;4.13;;;2.60;;
65039;SDS011;51606;45.000;38.612;2023-06-19T05:47:07;4.53;;;2.53;;
65039;SDS011;51606;45.000;38.612;2023-06-19T05:49:34;6.20;;;2.50;;
65039;SDS011;51606;45.000;38.612;2023-06-19T05:52:00;7.75;;;2.60;;
65039;SDS011;51606;45.000;38.612;2023-06-19T05:54:27;8.38;;;2.25;;
65039;SDS011;51606;45.000;38.612;2023-06-19T05:56:54;2.90;;;2.40;;
65039;SDS011;51606;45.000;38.612;2023-06-19T05:59:20;4.05;;;2.30;;
65039;SDS011;51606;45.000;38.612;2023-06-19T06:01:47;3.28;;;2.47;;
65039;SDS011;51606;45.000;38.612;2023-06-19T06:04:16;5.22;;;2.10;;
65039;SDS011;51606;45.000;38.612;2023-06-19T06:06:43;3.90;;;2.80;;
65039;SDS011;51606;45.000;38.612;2023-06-19T06:09:09;5.47;;;2.80;;
65039;SDS011;51606;45.000;38.612;2023-06-19T06:11:40;5.65;;;2.65;;
65039;SDS011;51606;45.000;38.612;2023-06-19T06:14:06;5.68;;;2.45;;
65039;SDS011;51606;45.000;38.612;2023-06-19T06:16:33;4.20;;;2.60;;
65039;SDS011;51606;45.000;38.612;2023-06-19T06:18:59;7.90;;;2.75;;
65039;SDS011;51606;45.000;38.612;2023-06-19T06:21:26;6.22;;;2.67;;
65039;SDS011;51606;45.000;38.612;2023-06-19T06:23:52;3.97;;;2.53;;
65039;SDS011;51606;45.000;38.612;2023-06-19T06:26:20;4.75;;;3.08;;
65039;SDS011;51606;45.000;38.612;2023-06-19T06:28:47;3.55;;;2.40;;
65039;SDS011;51606;45.000;38.612;2023-06-19T06:31:14;4.20;;;2.58;;
65039;SDS011;51606;45.000;38.612;2023-06-19T06:33:40;5.40;;;2.78;;
65039;SDS011;51606;45.000;38.612;2023-06-19T06:36:07;6.65;;;3.15;;
65039;SDS011;51606;45.000;38.612;2023-06-19T06:38:33;7.97;;;2.47;;
65039;SDS011;51606;45.000;38.612;2023-06-19T06:40:59;7.43;;;2.65;;
65039;SDS011;51606;45.000;38.612;2023-06-19T06:43:26;5.32;;;2.45;;
65039;SDS011;51606;45.000;38.612;2023-06-19T06:45:52;3.40;;;2.38;;
65039;SDS011;51606;45.000;38.612;2023-06-19T06:48:19;4.18;;;2.30;;
65039;SDS011;51606;45.000;38.612;2023-06-19T06:50:46;6.07;;;2.47;;
65039;SDS011;51606;45.000;38.612;2023-06-19T06:53:13;5.70;;;2.35;;
65039;SDS011;51606;45.000;38.612;2023-06-19T06:55:39;10.15;;;2.70;;
65039;SDS011;51606;45.000;38.612;2023-06-19T06:58:06;6.68;;;2.45;;
65039;SDS011;51606;45.000;38.612;2023-06-19T07:00:32;8.23;;;3.47;;
65039;SDS011;51606;45.000;38.612;2023-06-19T07:02:59;7.43;;;3.47;;
65039;SDS011;51606;45.000;38.612;2023-06-19T07:05:25;6.43;;;3.17;;
65039;SDS011;51606;45.000;38.612;2023-06-19T07:07:54;8.95;;;2.97;;
65039;SDS011;51606;45.000;38.612;2023-06-19T07:10:21;8.25;;;2.90;;
65039;SDS011;51606;45.000;38.612;2023-06-19T07:12:47;4.43;;;3.20;;
65039;SDS011;51606;45.000;38.612;2023-06-19T07:15:14;4.88;;;3.10;;
65039;SDS011;51606;45.000;38.612;2023-06-19T07:17:40;3.70;;;2.90;;
65039;SDS011;51606;45.000;38.612;2023-06-19T07:20:07;6.45;;;3.17;;
65039;SDS011;51606;45.000;38.612;2023-06-19T07:22:34;4.68;;;3.10;;
65039;SDS011;51606;45.000;38.612;2023-06-19T07:25:01;4.10;;;2.95;;
65039;SDS011;51606;45.000;38.612;2023-06-19T07:27:29;9.45;;;2.92;;
65039;SDS011;51606;45.000;38.612;2023-06-19T07:29:56;4.88;;;2.60;;
65039;SDS011;51606;45.000;38.612;2023-06-19T07:32:22;7.75;;;2.45;;
65039;SDS011;51606;45.000;38.612;2023-06-19T07:34:49;3.80;;;2.15;;
65039;SDS011;51606;45.000;38.612;2023-06-19T07:37:18;5.13;;;2.17;;
65039;SDS011;51606;45.000;38.612;2023-06-19T07:39:45;4.13;;;2.38;;
65039;SDS011;51606;45.000;38.612;2023-06-19T07:42:16;4.85;;;2.60;;
65039;SDS011;51606;45.000;38.612;2023-06-19T07:44:44;5.38;;;2.53;;
65039;SDS011;51606;45.000;38.612;2023-06-19T07:47:11;3.90;;;2.53;;
65039;SDS011;51606;45.000;38.612;2023-06-19T07:49:39;4.75;;;2.55;;
65039;SDS011;51606;45.000;38.612;2023-06-19T07:52:06;3.45;;;2.30;;
65039;SDS011;51606;45.000;38.612;2023-06-19T07:54:35;5.82;;;2.72;;
65039;SDS011;51606;45.000;38.612;2023-06-19T07:57:02;2.97;;;2.47;;
65039;SDS011;51606;45.000;38.612;2023-06-19T07:59:28;7.38;;;2.65;;
65039;SDS011;51606;45.000;38.612;2023-06-19T08:01:55;11.90;;;3.03;;
65039;SDS011;51606;45.000;38.612;2023-06-19T08:04:21;9.50;;;2.72;;
65039;SDS011;51606;45.000;38.612;2023-06-19T08:06:47;5.85;;;2.78;;
65039;SDS011;51606;45.000;38.612;2023-06-19T08:09:14;4.00;;;2.35;;
65039;SDS011;51606;45.000;38.612;2023-06-19T08:11:41;9.80;;;3.08;;
65039;SDS011;51606;45.000;38.612;2023-06-19T08:14:07;5.88;;;2.50;;
65039;SDS011;51606;45.000;38.612;2023-06-19T08:16:34;5.85;;;2.65;;
65039;SDS011;51606;45.000;38.612;2023-06-19T08:19:00;2.72;;;2.28;;
65039;SDS011;51606;45.000;38.612;2023-06-19T08:21:27;4.88;;;2.60;;
65039;SDS011;51606;45.000;38.612;2023-06-19T08:23:54;6.60;;;2.40;;
65039;SDS011;51606;45.000;38.612;2023-06-19T08:26:20;4.40;;;2.25;;
65039;SDS011;51606;45.000;38.612;2023-06-19T08:28:46;11.80;;;2.40;;
65039;SDS011;51606;45.000;38.612;2023-06-19T08:31:13;6.43;;;2.90;;
65039;SDS011;51606;45.000;38.612;2023-06-19T08:33:39;4.05;;;2.17;;
65039;SDS011;51606;45.000;38.612;2023-06-19T08:36:06;4.28;;;2.20;;
65039;SDS011;51606;45.000;38.612;2023-06-19T08:38:32;6.63;;;2.40;;
65039;SDS011;51606;45.000;38.612;2023-06-19T08:40:59;3.70;;;2.17;;
65039;SDS011;51606;45.000;38.612;2023-06-19T08:43:25;6.80;;;2.25;;
65039;SDS011;51606;45.000;38.612;2023-06-19T08:46:05;4.35;;;2.10;;
65039;SDS011;51606;45.000;38.612;2023-06-19T08:48:37;3.30;;;2.05;;
65039;SDS011;51606;45.000;38.612;2023-06-19T08:51:04;5.30;;;2.40;;
65039;SDS011;51606;45.000;38.612;2023-06-19T08:53:34;12.18;;;2.20;;
65039;SDS011;51606;45.000;38.612;2023-06-19T08:56:05;4.95;;;2.15;;
65039;SDS011;51606;45.000;38.612;2023-06-19T08:58:32;3.25;;;1.92;;
65039;SDS011;51606;45.000;38.612;2023-06-19T09:00:58;9.27;;;2.13;;
65039;SDS011;51606;45.000;38.612;2023-06-19T09:03:25;5.72;;;1.77;;
65039;SDS011;51606;45.000;38.612;2023-06-19T09:06:01;6.43;;;2.08;;
65039;SDS011;51606;45.000;38.612;2023-06-19T09:08:30;7.82;;;2.05;;
65039;SDS011;51606;45.000;38.612;2023-06-19T09:11:01;9.10;;;2.20;;
65039;SDS011;51606;45.000;38.612;2023-06-19T09:13:28;3.83;;;2.38;;
65039;SDS011;51606;45.000;38.612;2023-06-19T09:16:00;3.38;;;2.08;;
65039;SDS011;51606;45.000;38.612;2023-06-19T09:18:31;6.25;;;2.15;;
65039;SDS011;51606;45.000;38.612;2023-06-19T09:21:14;13.00;;;3.50;;
65039;SDS011;51606;45.000;38.612;2023-06-19T09:23:44;8.05;;;2.70;;
65039;SDS011;51606;45.000;38.612;2023-06-19T09:26:15;4.40;;;2.30;;
65039;SDS011;51606;45.000;38.612;2023-06-19T09:28:43;2.55;;;1.90;;
65039;SDS011;51606;45.000;38.612;2023-06-19T09:31:09;5.47;;;2.13;;
65039;SDS011;51606;45.000;38.612;2023-06-19T09:33:36;4.72;;;1.90;;
65039;SDS011;51606;45.000;38.612;2023-06-19T09:36:07;4.63;;;2.08;;
65039;SDS011;51606;45.000;38.612;2023-06-19T09:38:37;3.20;;;2.08;;
65039;SDS011;51606;45.000;38.612;2023-06-19T09:41:08;4.95;;;2.08;;
65039;SDS011;51606;45.000;38.612;2023-06-19T09:43:36;3.20;;;1.92;;
65039;SDS011;51606;45.000;38.612;2023-06-19T09:46:05;7.43;;;2.25;;
65039;SDS011;51606;45.000;38.612;2023-06-19T09:48:33;5.72;;;2.50;;
65039;SDS011;51606;45.000;38.612;2023-06-19T09:53:54;2.20;;;1.90;;
65039;SDS011;51606;45.000;38.612;2023-06-19T09:58:56;4.18;;;2.00;;
65039;SDS011;51606;45.000;38.612;2023-06-19T10:01:30;3.72;;;2.40;;
65039;SDS011;51606;45.000;38.612;2023-06-19T10:04:04;4.78;;;2.45;;
65039;SDS011;51606;45.000;38.612;2023-06-19T10:06:32;4.40;;;2.20;;
65039;SDS011;51606;45.000;38.612;2023-06-19T10:09:08;3.90;;;2.60;;
65039;SDS011;51606;45.000;38.612;2023-06-19T10:11:51;8.05;;;2.85;;
65039;SDS011;51606;45.000;38.612;2023-06-19T10:14:21;4.90;;;2.40;;
65039;SDS011;51606;45.000;38.612;2023-06-19T10:16:50;4.10;;;2.80;;
65039;SDS011;51606;45.000;38.612;2023-06-19T10:19:17;3.88;;;2.25;;
65039;SDS011;51606;45.000;38.612;2023-06-19T10:21:47;6.25;;;2.63;;
65039;SDS011;51606;45.000;38.612;2023-06-19T10:24:16;6.07;;;2.42;;
65039;SDS011;51606;45.000;38.612;2023-06-19T10:27:00;3.17;;;2.25;;
65039;SDS011;51606;45.000;38.612;2023-06-19T10:29:40;7.47;;;2.60;;
65039;SDS011;51606;45.000;38.612;2023-06-19T10:32:07;2.83;;;2.15;;
65039;SDS011;51606;45.000;38.612;2023-06-19T10:34:34;3.70;;;2.88;;
65039;SDS011;51606;45.000;38.612;2023-06-19T10:37:03;7.60;;;2.30;;
65039;SDS011;51606;45.000;38.612;2023-06-19T10:39:31;8.82;;;2.75;;
65039;SDS011;51606;45.000;38.612;2023-06-19T10:44:25;6.28;;;2.53;;
65039;SDS011;51606;45.000;38.612;2023-06-19T10:46:52;4.90;;;2.83;;
65039;SDS011;51606;45.000;38.612;2023-06-19T10:49:19;13.02;;;2.58;;
65039;SDS011;51606;45.000;38.612;2023-06-19T10:51:48;6.63;;;2.50;;
65039;SDS011;51606;45.000;38.612;2023-06-19T10:54:15;7.95;;;2.50;;
65039;SDS011;51606;45.000;38.612;2023-06-19T10:56:45;8.32;;;2.90;;
65039;SDS011;51606;45.000;38.612;2023-06-19T10:59:14;9.57;;;2.75;;
65039;SDS011;51606;45.000;38.612;2023-06-19T11:01:42;8.25;;;2.88;;
65039;SDS011;51606;45.000;38.612;2023-06-19T11:04:12;8.25;;;2.50;;
65039;SDS011;51606;45.000;38.612;2023-06-19T11:06:40;4.32;;;2.55;;
65039;SDS011;51606;45.000;38.612;2023-06-19T11:09:08;3.33;;;2.22;;
65039;SDS011;51606;45.000;38.612;2023-06-19T11:11:41;7.55;;;2.90;;
65039;SDS011;51606;45.000;38.612;2023-06-19T11:16:47;6.53;;;3.17;;
65039;SDS011;51606;45.000;38.612;2023-06-19T11:19:17;3.78;;;2.90;;
65039;SDS011;51606;45.000;38.612;2023-06-19T11:21:50;7.75;;;3.00;;
65039;SDS011;51606;45.000;38.612;2023-06-19T11:24:18;8.98;;;3.42;;
65039;SDS011;51606;45.000;38.612;2023-06-19T11:26:49;5.25;;;3.05;;
65039;SDS011;51606;45.000;38.612;2023-06-19T11:29:20;4.50;;;2.53;;
65039;SDS011;51606;45.000;38.612;2023-06-19T11:32:08;3.78;;;2.67;;
65039;SDS011;51606;45.000;38.612;2023-06-19T11:34:39;8.95;;;2.55;;
65039;SDS011;51606;45.000;38.612;2023-06-19T11:37:15;6.80;;;3.30;;
65039;SDS011;51606;45.000;38.612;2023-06-19T11:39:49;4.15;;;2.75;;
65039;SDS011;51606;45.000;38.612;2023-06-19T11:42:19;6.43;;;2.90;;
65039;SDS011;51606;45.000;38.612;2023-06-19T11:44:56;3.83;;;2.60;;
65039;SDS011;51606;45.000;38.612;2023-06-19T11:47:35;7.70;;;2.95;;
65039;SDS011;51606;45.000;38.612;2023-06-19T11:50:04;4.32;;;2.67;;
65039;SDS011;51606;45.000;38.612;2023-06-19T11:52:31;7.05;;;2.50;;
65039;SDS011;51606;45.000;38.612;2023-06-19T11:54:58;4.70;;;2.13;;
65039;SDS011;51606;45.000;38.612;2023-06-19T11:57:26;6.00;;;2.80;;
65039;SDS011;51606;45.000;38.612;2023-06-19T11:59:52;4.55;;;2.22;;
65039;SDS011;51606;45.000;38.612;2023-06-19T12:02:19;3.13;;;2.28;;
65039;SDS011;51606;45.000;38.612;2023-06-19T12:04:46;6.28;;;2.42;;
65039;SDS011;51606;45.000;38.612;2023-06-19T12:07:12;7.88;;;2.70;;
65039;SDS011;51606;45.000;38.612;2023-06-19T12:09:41;3.88;;;2.28;;
65039;SDS011;51606;45.000;38.612;2023-06-19T12:12:10;3.28;;;1.88;;
65039;SDS011;51606;45.000;38.612;2023-06-19T12:14:37;7.25;;;2.47;;
65039;SDS011;51606;45.000;38.612;2023-06-19T12:17:05;4.60;;;2.20;;
65039;SDS011;51606;45.000;38.612;2023-06-19T12:19:32;4.13;;;2.55;;
65039;SDS011;51606;45.000;38.612;2023-06-19T12:21:58;4.90;;;2.63;;
65039;SDS011;51606;45.000;38.612;2023-06-19T12:24:25;12.50;;;2.60;;
65039;SDS011;51606;45.000;38.612;2023-06-19T12:26:51;4.80;;;2.75;;
65039;SDS011;51606;45.000;38.612;2023-06-19T12:29:18;1.95;;;1.58;;
